Time;durP1;ratioP1;P1;durP2;ratioP2;P2;SDS_P1;SDS_P2;PMS_P1;PMS_P2;Temp;Humidity;BMP_temperature;BMP_pressure;BME280_temperature;BME280_humidity;BME280_pressure;Samples;Min_cycle;Max_cycle;Signal;HPM_P1;HPM_P2
2023/03/10 00:03:20;;;;;;;1.13;0.77;;;;;;;;;;10550588;28;20119;-76
2023/03/10 00:08:22;;;;;;;;;;;;;;;;;;10545968;28;20512;-76
2023/03/10 00:13:29;;;;;;;4.97;0.80;;;;;;;;;;10549963;27;19974;-78
2023/03/10 00:18:34;;;;;;;0.73;0.47;;;;;;;;;;10549332;28;20116;-78
2023/03/10 00:23:37;;;;;;;3.20;0.70;;;;;;;;;;10559564;28;20168;-78
2023/03/10 00:28:40;;;;;;;2.28;0.88;;;;;;;;;;10541948;28;20396;-78
2023/03/10 00:33:44;;;;;;;3.50;1.23;;;;;;;;;;10554113;28;20044;-78
2023/03/10 00:38:48;;;;;;;1.92;0.70;;;;;;;;;;10550095;27;20069;-78
2023/03/10 00:43:51;;;;;;;1.30;0.65;;;;;;;;;;10543023;28;20050;-78
2023/03/10 00:48:56;;;;;;;0.70;0.47;;;;;;;;;;10552820;27;20357;-78
2023/03/10 00:53:59;;;;;;;0.47;0.35;;;;;;;;;;10545083;28;20591;-78
2023/03/10 00:59:02;;;;;;;2.17;0.93;;;;;;;;;;10545891;27;20332;-77
2023/03/10 01:04:06;;;;;;;1.35;0.90;;;;;;;;;;10540581;28;20054;-78
2023/03/10 01:09:09;;;;;;;3.03;1.08;;;;;;;;;;10548694;28;20118;-77
2023/03/10 01:14:13;;;;;;;1.03;0.47;;;;;;;;;;10548425;27;20028;-77
2023/03/10 01:19:17;;;;;;;1.35;0.75;;;;;;;;;;10559838;27;21699;-77
2023/03/10 01:24:20;;;;;;;1.92;1.00;;;;;;;;;;10561049;27;20046;-77
2023/03/10 01:29:23;;;;;;;5.28;0.80;;;;;;;;;;10550698;27;20047;-77
2023/03/10 01:34:27;;;;;;;3.03;0.88;;;;;;;;;;10528149;28;20090;-77
2023/03/10 01:39:30;;;;;;;1.65;0.57;;;;;;;;;;10546864;27;20471;-76
2023/03/10 01:44:33;;;;;;;2.10;0.60;;;;;;;;;;10532364;28;20055;-77
2023/03/10 01:49:47;;;;;;;2.30;1.05;;;;;;;;;;10543097;28;20048;-76
2023/03/10 01:54:53;;;;;;;2.03;0.75;;;;;;;;;;10542879;28;20116;-76
2023/03/10 01:59:56;;;;;;;3.70;1.33;;;;;;;;;;10549653;27;20058;-76
2023/03/10 02:05:02;;;;;;;1.10;0.93;;;;;;;;;;10549401;28;20045;-75
2023/03/10 02:10:05;;;;;;;1.75;0.80;;;;;;;;;;10544731;28;20035;-76
2023/03/10 02:15:09;;;;;;;3.58;1.20;;;;;;;;;;10556580;27;20039;-76
2023/03/10 02:20:12;;;;;;;;;;;;;;;;;;10537489;28;20054;-76
2023/03/10 02:25:38;;;;;;;2.10;1.05;;;;;;;;;;10540219;28;20034;-75
2023/03/10 02:30:43;;;;;;;1.00;0.60;;;;;;;;;;10544241;27;20075;-76
2023/03/10 02:35:46;;;;;;;1.38;0.73;;;;;;;;;;10546133;28;20119;-76
2023/03/10 02:40:50;;;;;;;1.20;0.77;;;;;;;;;;10541467;28;20035;-77
2023/03/10 02:45:55;;;;;;;0.87;0.60;;;;;;;;;;10544283;28;20115;-78
2023/03/10 02:51:00;;;;;;;1.38;0.70;;;;;;;;;;10543806;28;20040;-76
2023/03/10 02:56:02;;;;;;;0.50;0.30;;;;;;;;;;10543130;28;20539;-77
2023/03/10 03:01:07;;;;;;;1.75;0.40;;;;;;;;;;10539802;28;20048;-78
2023/03/10 03:06:10;;;;;;;0.82;0.50;;;;;;;;;;10544590;28;20114;-77
2023/03/10 03:11:14;;;;;;;0.70;0.50;;;;;;;;;;10553771;28;20040;-78
2023/03/10 03:16:19;;;;;;;5.10;0.70;;;;;;;;;;10544078;28;20036;-77
2023/03/10 03:21:23;;;;;;;1.45;0.60;;;;;;;;;;10537505;28;20039;-77
2023/03/10 03:26:26;;;;;;;2.28;0.80;;;;;;;;;;10552446;28;20049;-78
2023/03/10 03:31:31;;;;;;;0.40;0.40;;;;;;;;;;10547563;28;20130;-75
2023/03/10 03:36:36;;;;;;;2.70;0.77;;;;;;;;;;10550085;28;20031;-77
2023/03/10 03:41:38;;;;;;;1.25;0.40;;;;;;;;;;10528378;28;20137;-76
2023/03/10 03:46:43;;;;;;;1.67;0.22;;;;;;;;;;10540125;28;20048;-76
2023/03/10 03:51:50;;;;;;;1.25;0.52;;;;;;;;;;10541857;28;20067;-77
2023/03/10 03:56:53;;;;;;;1.67;0.50;;;;;;;;;;10547529;28;20128;-77
2023/03/10 04:01:56;;;;;;;1.63;0.82;;;;;;;;;;10551240;27;20044;-77
2023/03/10 04:06:59;;;;;;;;;;;;;;;;;;10568939;27;20036;-76
2023/03/10 04:12:03;;;;;;;1.77;0.70;;;;;;;;;;10559819;28;19934;-74
2023/03/10 04:17:08;;;;;;;3.42;0.90;;;;;;;;;;10564014;28;20043;-76
2023/03/10 04:22:13;;;;;;;3.88;0.70;;;;;;;;;;10570227;28;20032;-77
2023/03/10 04:27:16;;;;;;;0.88;0.57;;;;;;;;;;10566606;27;20142;-77
2023/03/10 04:32:20;;;;;;;1.23;0.70;;;;;;;;;;10546192;27;20055;-76
2023/03/10 04:37:23;;;;;;;2.90;0.73;;;;;;;;;;10548313;27;20118;-77
2023/03/10 04:42:35;;;;;;;4.38;0.82;;;;;;;;;;10551361;28;20508;-77
2023/03/10 04:47:40;;;;;;;0.93;0.43;;;;;;;;;;10545913;28;20043;-76
2023/03/10 04:52:43;;;;;;;0.38;0.22;;;;;;;;;;10551954;28;20108;-76
2023/03/10 04:57:45;;;;;;;3.42;0.90;;;;;;;;;;10548914;28;20051;-77
2023/03/10 05:02:55;;;;;;;1.38;0.80;;;;;;;;;;10531162;27;20135;-78
2023/03/10 05:08:14;;;;;;;1.45;0.70;;;;;;;;;;10536650;27;20583;-79
2023/03/10 05:13:20;;;;;;;0.43;0.43;;;;;;;;;;10539982;27;20396;-78
2023/03/10 05:18:36;;;;;;;0.50;0.47;;;;;;;;;;10549605;27;20040;-78
2023/03/10 05:23:42;;;;;;;3.08;0.50;;;;;;;;;;10534370;28;20493;-78
2023/03/10 05:28:48;;;;;;;0.50;0.40;;;;;;;;;;10541785;27;20066;-77
2023/03/10 05:33:57;;;;;;;3.05;0.68;;;;;;;;;;10565075;27;20051;-79
2023/03/10 05:39:04;;;;;;;2.25;0.80;;;;;;;;;;10554822;28;20040;-77
2023/03/10 05:44:11;;;;;;;1.17;0.80;;;;;;;;;;10545770;28;20061;-77
2023/03/10 05:49:24;;;;;;;1.13;0.85;;;;;;;;;;10527414;28;20112;-77
2023/03/10 05:54:29;;;;;;;2.60;0.90;;;;;;;;;;10565521;27;20370;-77
2023/03/10 05:59:38;;;;;;;1.42;0.77;;;;;;;;;;10541905;28;20128;-77
2023/03/10 06:04:49;;;;;;;3.25;0.73;;;;;;;;;;10536954;27;20042;-75
2023/03/10 06:09:59;;;;;;;2.05;0.60;;;;;;;;;;10560281;27;20130;-77
2023/03/10 06:15:16;;;;;;;2.63;0.70;;;;;;;;;;10550742;27;20044;-78
2023/03/10 06:20:45;;;;;;;0.70;0.65;;;;;;;;;;10542326;28;20047;-77
2023/03/10 06:25:58;;;;;;;1.10;0.68;;;;;;;;;;10553324;28;20052;-76
2023/03/10 06:31:13;;;;;;;5.00;1.02;;;;;;;;;;10538576;28;20035;-76
2023/03/10 06:36:19;;;;;;;3.38;0.80;;;;;;;;;;10542989;28;20405;-77
2023/03/10 06:41:24;;;;;;;16.38;7.20;;;;;;;;;;10548778;28;21002;-77
2023/03/10 06:46:29;;;;;;;22.60;8.93;;;;;;;;;;10570476;27;20135;-77
2023/03/10 06:51:37;;;;;;;5.55;2.58;;;;;;;;;;10570442;27;20051;-77
2023/03/10 06:56:42;;;;;;;2.55;1.45;;;;;;;;;;10553947;28;20031;-77
2023/03/10 07:01:50;;;;;;;3.03;1.95;;;;;;;;;;10530437;28;20093;-77
2023/03/10 07:07:03;;;;;;;1.65;0.93;;;;;;;;;;10547953;28;20126;-77
2023/03/10 07:12:13;;;;;;;0.85;0.65;;;;;;;;;;10538001;28;20235;-77
2023/03/10 07:17:23;;;;;;;6.45;0.82;;;;;;;;;;10532040;28;20039;-77
2023/03/10 07:22:31;;;;;;;2.58;1.20;;;;;;;;;;10538170;28;20468;-77
2023/03/10 07:27:37;;;;;;;0.40;0.40;;;;;;;;;;10533670;28;20126;-77
2023/03/10 07:32:43;;;;;;;2.42;1.10;;;;;;;;;;10537019;28;20059;-77
2023/03/10 07:37:51;;;;;;;4.40;1.02;;;;;;;;;;10532472;27;20040;-77
2023/03/10 07:42:57;;;;;;;3.22;1.05;;;;;;;;;;10553325;27;20056;-77
2023/03/10 07:48:12;;;;;;;2.53;0.88;;;;;;;;;;10525259;27;20474;-78
2023/03/10 07:53:25;;;;;;;2.22;1.20;;;;;;;;;;10541222;28;20144;-77
2023/03/10 07:58:33;;;;;;;0.80;0.50;;;;;;;;;;10556921;28;20419;-79
2023/03/10 08:03:49;;;;;;;2.42;0.90;;;;;;;;;;10530303;28;20161;-77
2023/03/10 08:08:59;;;;;;;0.90;0.80;;;;;;;;;;10559018;27;20031;-76
2023/03/10 08:14:28;;;;;;;1.85;0.80;;;;;;;;;;10518325;28;20054;-76
2023/03/10 08:19:39;;;;;;;0.95;0.70;;;;;;;;;;10542682;28;20356;-76
2023/03/10 08:24:47;;;;;;;1.55;0.73;;;;;;;;;;10557975;27;20042;-77
2023/03/10 08:29:54;;;;;;;1.35;1.13;;;;;;;;;;10573941;27;20147;-75
2023/03/10 08:35:08;;;;;;;4.15;1.13;;;;;;;;;;10558382;27;20054;-76
2023/03/10 08:40:27;;;;;;;2.13;1.20;;;;;;;;;;10553689;28;20465;-76
2023/03/10 08:45:33;;;;;;;1.88;0.60;;;;;;;;;;10564894;27;20409;-77
2023/03/10 08:50:38;;;;;;;6.45;1.30;;;;;;;;;;10553138;28;20126;-77
2023/03/10 08:55:47;;;;;;;4.35;1.20;;;;;;;;;;10544255;28;20035;-77
2023/03/10 09:00:52;;;;;;;2.80;1.40;;;;;;;;;;10552209;28;20048;-77
2023/03/10 09:05:55;;;;;;;4.15;1.50;;;;;;;;;;10565382;27;20116;-77
2023/03/10 09:11:04;;;;;;;3.03;1.50;;;;;;;;;;10546602;27;20477;-77
2023/03/10 09:16:38;;;;;;;4.80;1.58;;;;;;;;;;10569786;27;20040;-77
2023/03/10 09:21:56;;;;;;;3.30;1.50;;;;;;;;;;10571760;27;20062;-78
2023/03/10 09:27:06;;;;;;;3.78;1.50;;;;;;;;;;10552708;27;20042;-77
2023/03/10 09:32:14;;;;;;;3.50;1.25;;;;;;;;;;10555234;28;20095;-78
2023/03/10 09:37:18;;;;;;;1.73;1.10;;;;;;;;;;10539125;28;20032;-77
2023/03/10 09:42:42;;;;;;;2.97;1.00;;;;;;;;;;10536776;28;20481;-78
2023/03/10 09:47:51;;;;;;;;;;;;;;;;;;10539462;28;20146;-77
2023/03/10 09:53:03;;;;;;;2.00;1.20;;;;;;;;;;10551608;28;20399;-78
2023/03/10 09:58:13;;;;;;;1.83;0.80;;;;;;;;;;10545630;27;20036;-77
2023/03/10 10:14:34;;;;;;;0.98;0.60;;;;;;;;;;10551625;27;20066;-77
2023/03/10 10:25:16;;;;;;;0.30;0.30;;;;;;;;;;10549901;28;20063;-77
2023/03/10 10:30:40;;;;;;;0.38;0.28;;;;;;;;;;10526343;28;20787;-77
2023/03/10 10:36:00;;;;;;;2.60;0.35;;;;;;;;;;10542529;28;20090;-77
2023/03/10 10:41:20;;;;;;;0.93;0.32;;;;;;;;;;10548029;27;20081;-77
2023/03/10 10:46:31;;;;;;;0.10;0.10;;;;;;;;;;10541550;28;20032;-79
2023/03/10 10:51:55;;;;;;;0.40;0.38;;;;;;;;;;10552188;28;20067;-78
2023/03/10 10:57:18;;;;;;;0.77;0.27;;;;;;;;;;10528653;28;20113;-78
2023/03/10 11:02:30;;;;;;;0.35;0.22;;;;;;;;;;10528412;28;20050;-78
2023/03/10 11:07:51;;;;;;;0.20;0.20;;;;;;;;;;10556277;28;20036;-76
2023/03/10 11:12:59;;;;;;;0.20;0.20;;;;;;;;;;10542025;28;20094;-77
2023/03/10 11:18:18;;;;;;;3.20;0.40;;;;;;;;;;10556115;28;20055;-77
2023/03/10 11:23:36;;;;;;;1.05;0.30;;;;;;;;;;10560807;27;20380;-78
2023/03/10 11:28:49;;;;;;;0.20;0.20;;;;;;;;;;10533718;27;20928;-78
2023/03/10 11:34:15;;;;;;;1.30;1.20;;;;;;;;;;10553580;28;20501;-78
2023/03/10 11:39:27;;;;;;;1.88;1.15;;;;;;;;;;10557965;27;20512;-77
2023/03/10 11:44:38;;;;;;;1.45;1.17;;;;;;;;;;10551160;28;20130;-77
2023/03/10 11:50:00;;;;;;;2.03;1.10;;;;;;;;;;10553907;27;20067;-77
2023/03/10 12:00:40;;;;;;;1.38;0.38;;;;;;;;;;10538561;28;20159;-79
2023/03/10 12:05:51;;;;;;;0.98;0.40;;;;;;;;;;10535805;28;20043;-78
2023/03/10 12:11:08;;;;;;;1.10;0.82;;;;;;;;;;10538025;27;20290;-78
2023/03/10 12:16:19;;;;;;;1.45;1.08;;;;;;;;;;10542991;27;20084;-78
2023/03/10 12:21:29;;;;;;;0.75;0.60;;;;;;;;;;10543111;28;20055;-77
2023/03/10 12:27:01;;;;;;;0.98;0.88;;;;;;;;;;10549352;27;20039;-78
2023/03/10 12:32:06;;;;;;;1.30;0.57;;;;;;;;;;10562766;27;20397;-77
2023/03/10 12:37:26;;;;;;;0.65;0.63;;;;;;;;;;10543359;27;20528;-77
2023/03/10 12:42:44;;;;;;;0.80;0.80;;;;;;;;;;10532386;28;20074;-78
2023/03/10 12:48:00;;;;;;;1.88;0.50;;;;;;;;;;10553463;27;20577;-78
2023/03/10 12:53:40;;;;;;;0.77;0.40;;;;;;;;;;10550855;28;20115;-79
2023/03/10 12:58:52;;;;;;;0.20;0.20;;;;;;;;;;10551987;28;20519;-77
2023/03/10 13:04:06;;;;;;;0.30;0.30;;;;;;;;;;10529668;28;20084;-78
2023/03/10 13:09:22;;;;;;;0.80;0.80;;;;;;;;;;10533203;28;20097;-77
2023/03/10 13:14:42;;;;;;;0.77;0.77;;;;;;;;;;10546282;27;20070;-78
2023/03/10 13:20:02;;;;;;;3.00;0.28;;;;;;;;;;10517410;28;20039;-78
2023/03/10 13:25:21;;;;;;;0.32;0.30;;;;;;;;;;10531080;27;20051;-77
2023/03/10 13:30:38;;;;;;;0.68;0.40;;;;;;;;;;10529122;27;20445;-77
2023/03/10 13:35:55;;;;;;;3.33;0.60;;;;;;;;;;10536613;28;20122;-78
2023/03/10 13:41:05;;;;;;;0.43;0.43;;;;;;;;;;10549632;27;20050;-78
2023/03/10 13:46:17;;;;;;;3.17;1.30;;;;;;;;;;10555457;27;20079;-79
2023/03/10 13:51:23;;;;;;;1.80;0.65;;;;;;;;;;10525756;28;20513;-78
2023/03/10 13:56:36;;;;;;;1.23;0.70;;;;;;;;;;10535696;28;20127;-78
2023/03/10 14:01:49;;;;;;;1.00;0.30;;;;;;;;;;10540204;28;20557;-78
2023/03/10 14:07:19;;;;;;;0.73;0.33;;;;;;;;;;10542588;28;20048;-79
2023/03/10 14:12:37;;;;;;;0.38;0.30;;;;;;;;;;10545293;28;20059;-79
2023/03/10 14:17:46;;;;;;;0.52;0.20;;;;;;;;;;10547368;28;20500;-76
2023/03/10 14:22:50;;;;;;;0.47;0.20;;;;;;;;;;10524651;28;20390;-77
2023/03/10 14:28:00;;;;;;;0.52;0.30;;;;;;;;;;10531163;28;20032;-77
2023/03/10 14:33:23;;;;;;;0.75;0.30;;;;;;;;;;10533374;28;20087;-78
2023/03/10 14:38:32;;;;;;;1.23;0.20;;;;;;;;;;10547467;27;20050;-77
2023/03/10 14:43:44;;;;;;;0.00;0.00;;;;;;;;;;10540374;28;20085;-78
2023/03/10 14:48:55;;;;;;;2.25;0.40;;;;;;;;;;10536019;28;21576;-77
2023/03/10 14:54:01;;;;;;;1.20;0.05;;;;;;;;;;10546195;28;20046;-77
2023/03/10 14:59:07;;;;;;;0.40;0.20;;;;;;;;;;10549628;28;20039;-78
2023/03/10 15:04:20;;;;;;;0.10;0.10;;;;;;;;;;10533095;28;20049;-77
2023/03/10 15:09:39;;;;;;;2.40;0.30;;;;;;;;;;10553619;28;20387;-79
2023/03/10 15:14:52;;;;;;;1.27;0.28;;;;;;;;;;10550016;28;21045;-79
2023/03/10 15:20:07;;;;;;;0.13;0.10;;;;;;;;;;10539686;28;20048;-78
2023/03/10 15:25:14;;;;;;;0.63;0.20;;;;;;;;;;10532463;28;20036;-77
2023/03/10 15:36:05;;;;;;;0.15;0.15;;;;;;;;;;10551303;28;20028;-79
2023/03/10 15:46:36;;;;;;;0.30;0.30;;;;;;;;;;10542641;28;20040;-79
2023/03/10 15:51:48;;;;;;;0.60;0.20;;;;;;;;;;10548145;28;20503;-80
2023/03/10 15:56:57;;;;;;;1.38;0.25;;;;;;;;;;10549016;28;20287;-80
2023/03/10 16:02:09;;;;;;;0.40;0.40;;;;;;;;;;10551404;27;20061;-80
2023/03/10 16:07:19;;;;;;;0.30;0.30;;;;;;;;;;10544501;27;20484;-79
2023/03/10 16:12:22;;;;;;;0.10;0.10;;;;;;;;;;10556289;28;20051;-79
2023/03/10 16:17:30;;;;;;;0.32;0.20;;;;;;;;;;10540514;28;20519;-81
2023/03/10 16:22:44;;;;;;;0.98;0.30;;;;;;;;;;10545018;28;20038;-81
2023/03/10 16:27:49;;;;;;;0.77;0.43;;;;;;;;;;10559701;27;20035;-80
2023/03/10 16:33:06;;;;;;;0.50;0.30;;;;;;;;;;10527344;27;20138;-80
2023/03/10 16:38:20;;;;;;;0.25;0.20;;;;;;;;;;10565150;27;20124;-80
2023/03/10 16:48:54;;;;;;;0.68;0.32;;;;;;;;;;10560934;27;20131;-80
2023/03/10 16:54:08;;;;;;;0.40;0.20;;;;;;;;;;10560602;27;20043;-79
2023/03/10 16:59:20;;;;;;;0.30;0.20;;;;;;;;;;10562809;27;20036;-79
2023/03/10 17:04:35;;;;;;;0.32;0.30;;;;;;;;;;10560046;28;20043;-79
2023/03/10 17:09:49;;;;;;;0.22;0.22;;;;;;;;;;10560063;28;20120;-78
2023/03/10 17:20:20;;;;;;;1.17;0.40;;;;;;;;;;10548348;28;20097;-80
2023/03/10 17:25:27;;;;;;;2.63;0.50;;;;;;;;;;10558969;28;20702;-80
2023/03/10 17:30:37;;;;;;;1.88;0.28;;;;;;;;;;10502149;28;20126;-80
2023/03/10 17:35:51;;;;;;;1.67;0.60;;;;;;;;;;10560020;27;20047;-79
2023/03/10 17:41:03;;;;;;;2.50;0.88;;;;;;;;;;10554775;27;20069;-79
2023/03/10 17:46:10;;;;;;;2.72;0.80;;;;;;;;;;10561121;28;20043;-79
2023/03/10 17:51:18;;;;;;;2.75;1.00;;;;;;;;;;10552210;27;20126;-79
2023/03/10 17:56:35;;;;;;;3.17;1.17;;;;;;;;;;10548625;27;20507;-80
2023/03/10 18:01:48;;;;;;;2.40;0.57;;;;;;;;;;10570100;27;20036;-81
2023/03/10 18:07:03;;;;;;;8.40;1.45;;;;;;;;;;10556923;28;20046;-79
2023/03/10 18:12:13;;;;;;;2.33;0.80;;;;;;;;;;10560265;28;20040;-78
2023/03/10 18:17:31;;;;;;;8.18;2.03;;;;;;;;;;10540339;28;20035;-79
2023/03/10 18:22:48;;;;;;;6.30;1.50;;;;;;;;;;10562474;27;20079;-79
2023/03/10 18:27:59;;;;;;;4.28;1.15;;;;;;;;;;10540248;28;20070;-80
2023/03/10 18:33:14;;;;;;;5.95;1.45;;;;;;;;;;10562487;27;20759;-80
2023/03/10 18:38:24;;;;;;;4.22;0.80;;;;;;;;;;10553860;28;20028;-79
2023/03/10 18:43:35;;;;;;;;;;;;;;;;;;10547420;28;20481;-79
2023/03/10 18:49:01;;;;;;;3.90;1.00;;;;;;;;;;10546551;28;20369;-80
2023/03/10 18:54:26;;;;;;;4.20;0.98;;;;;;;;;;10539339;27;20125;-80
2023/03/10 18:59:38;;;;;;;2.90;0.80;;;;;;;;;;10525958;28;20152;-79
2023/03/10 19:05:03;;;;;;;1.75;0.60;;;;;;;;;;10539429;28;20134;-79
2023/03/10 19:10:16;;;;;;;2.78;1.10;;;;;;;;;;10545559;28;20131;-78
2023/03/10 19:15:20;;;;;;;1.67;0.60;;;;;;;;;;10553152;28;20127;-79
2023/03/10 19:20:23;;;;;;;2.85;0.77;;;;;;;;;;10553236;28;20052;-79
2023/03/10 19:25:38;;;;;;;0.80;0.50;;;;;;;;;;10550887;28;20106;-79
2023/03/10 19:30:48;;;;;;;1.92;1.00;;;;;;;;;;10551399;28;20577;-81
2023/03/10 19:36:16;;;;;;;2.47;0.80;;;;;;;;;;10573079;28;20047;-80
2023/03/10 19:41:49;;;;;;;4.65;1.10;;;;;;;;;;10559294;27;20047;-79
2023/03/10 19:47:03;;;;;;;2.60;0.90;;;;;;;;;;10552048;27;20036;-78
2023/03/10 19:52:08;;;;;;;2.00;0.77;;;;;;;;;;10553835;28;20108;-80
2023/03/10 20:02:57;;;;;;;2.55;0.55;;;;;;;;;;10548625;28;20039;-81
2023/03/10 20:08:33;;;;;;;4.75;1.48;;;;;;;;;;10575290;28;20173;-81
2023/03/10 20:14:00;;;;;;;4.88;1.10;;;;;;;;;;10566248;28;20036;-80
2023/03/10 20:19:07;;;;;;;3.42;1.00;;;;;;;;;;10571165;27;20049;-80
2023/03/10 20:24:34;;;;;;;4.15;1.13;;;;;;;;;;10552406;27;20043;-80
2023/03/10 20:29:56;;;;;;;5.32;1.00;;;;;;;;;;10563885;27;20056;-79
2023/03/10 20:35:05;;;;;;;2.15;1.00;;;;;;;;;;10514639;28;20105;-80
2023/03/10 20:40:15;;;;;;;1.88;1.02;;;;;;;;;;10556167;28;20044;-80
2023/03/10 20:45:28;;;;;;;6.30;1.23;;;;;;;;;;10555827;27;20062;-81
2023/03/10 20:50:55;;;;;;;4.45;1.50;;;;;;;;;;10558821;27;20039;-81
2023/03/10 20:56:06;;;;;;;3.97;1.15;;;;;;;;;;10556779;27;20048;-80
2023/03/10 21:01:19;;;;;;;5.45;1.17;;;;;;;;;;10559250;28;20142;-81
2023/03/10 21:06:31;;;;;;;2.08;1.00;;;;;;;;;;10569505;27;20032;-80
2023/03/10 21:11:39;;;;;;;2.55;1.08;;;;;;;;;;10571830;27;20047;-80
2023/03/10 21:16:46;;;;;;;3.25;1.30;;;;;;;;;;10549667;28;20046;-81
2023/03/10 21:21:52;;;;;;;4.53;1.17;;;;;;;;;;10567260;28;20050;-79
2023/03/10 21:27:04;;;;;;;1.60;0.70;;;;;;;;;;10561823;28;20044;-82
2023/03/10 21:32:22;;;;;;;2.67;1.30;;;;;;;;;;10560522;27;20048;-81
2023/03/10 21:37:49;;;;;;;2.20;0.95;;;;;;;;;;10557114;28;20542;-79
2023/03/10 21:48:22;;;;;;;1.88;1.40;;;;;;;;;;10568329;27;20107;-80
2023/03/10 21:53:28;;;;;;;2.15;1.20;;;;;;;;;;10586850;27;20092;-79
2023/03/10 21:58:39;;;;;;;1.88;0.98;;;;;;;;;;10569690;27;20126;-79
2023/03/10 22:04:06;;;;;;;2.35;1.30;;;;;;;;;;10566233;27;20048;-80
2023/03/10 22:09:15;;;;;;;1.75;1.35;;;;;;;;;;10555439;28;20040;-79
2023/03/10 22:14:26;;;;;;;1.33;1.13;;;;;;;;;;10556688;28;20050;-79
2023/03/10 22:19:33;;;;;;;3.30;1.63;;;;;;;;;;10553843;28;20397;-79
2023/03/10 22:24:43;;;;;;;1.75;0.82;;;;;;;;;;10553877;27;20126;-78
2023/03/10 22:30:04;;;;;;;2.53;1.23;;;;;;;;;;10549689;27;20563;-81
2023/03/10 22:35:22;;;;;;;1.70;1.20;;;;;;;;;;10524144;27;20480;-79
2023/03/10 22:40:27;;;;;;;1.53;1.07;;;;;;;;;;10538851;28;20062;-76
2023/03/10 22:45:40;;;;;;;2.53;1.33;;;;;;;;;;10543004;27;20483;-78
2023/03/10 22:50:51;;;;;;;1.33;0.90;;;;;;;;;;10557785;27;20139;-80
2023/03/10 22:56:00;;;;;;;1.48;1.08;;;;;;;;;;10552522;28;20040;-78
2023/03/10 23:01:17;;;;;;;1.88;1.27;;;;;;;;;;10561105;28;20037;-79
2023/03/10 23:06:27;;;;;;;1.08;0.80;;;;;;;;;;10556605;28;20039;-79
2023/03/10 23:11:34;;;;;;;0.88;0.88;;;;;;;;;;10555425;28;20160;-79
2023/03/10 23:16:45;;;;;;;1.67;0.90;;;;;;;;;;10545186;28;20473;-81
2023/03/10 23:22:02;;;;;;;0.82;0.55;;;;;;;;;;10553944;28;20047;-79
2023/03/10 23:27:10;;;;;;;1.43;1.03;;;;;;;;;;10555329;28;20047;-78
2023/03/10 23:32:16;;;;;;;1.60;1.05;;;;;;;;;;10555207;28;20052;-81
2023/03/10 23:37:35;;;;;;;1.10;0.98;;;;;;;;;;10546020;28;20044;-81
2023/03/10 23:42:58;;;;;;;3.03;1.15;;;;;;;;;;10551128;28;20035;-80
2023/03/10 23:48:12;;;;;;;1.75;0.93;;;;;;;;;;10545647;28;20040;-79
2023/03/10 23:59:02;;;;;;;0.60;0.55;;;;;;;;;;10556318;28;20032;-79
